createdAt,value
2023-03-05T00:02:51.443Z,-2.67
2023-03-05T00:07:53.529Z,-2.72
2023-03-05T00:12:55.598Z,-2.77
2023-03-05T00:17:57.633Z,-2.82
2023-03-05T00:22:59.670Z,-2.88
2023-03-05T00:28:01.684Z,-2.93
2023-03-05T00:33:03.924Z,-3.00
2023-03-05T00:38:05.968Z,-3.07
2023-03-05T00:43:08.865Z,-3.10
2023-03-05T00:48:10.992Z,-3.22
2023-03-05T00:53:13.066Z,-3.24
2023-03-05T00:58:15.470Z,-3.24
2023-03-05T01:03:18.909Z,-3.31
2023-03-05T01:08:21.331Z,-3.37
2023-03-05T01:13:23.766Z,-3.42
2023-03-05T01:18:25.775Z,-3.47
2023-03-05T01:23:27.907Z,-3.51
2023-03-05T01:28:30.116Z,-3.56
2023-03-05T01:33:32.291Z,-3.60
2023-03-05T01:38:34.327Z,-3.64
2023-03-05T01:43:36.567Z,-3.68
2023-03-05T01:48:39.278Z,-3.72
2023-03-05T01:53:43.369Z,-3.76
2023-03-05T01:58:46.107Z,-3.79
2023-03-05T02:03:48.793Z,-3.82
2023-03-05T02:08:51.089Z,-3.86
2023-03-05T02:13:53.188Z,-3.89
2023-03-05T02:18:55.205Z,-3.92
2023-03-05T02:23:57.236Z,-3.92
2023-03-05T02:29:03.283Z,-3.97
2023-03-05T02:34:05.748Z,-3.95
2023-03-05T02:39:09.887Z,-3.97
2023-03-05T02:44:11.989Z,-3.99
2023-03-05T02:49:14.299Z,-3.99
2023-03-05T02:54:16.256Z,-4.01
2023-03-05T02:59:18.420Z,-4.03
2023-03-05T03:04:20.388Z,-4.04
2023-03-05T03:09:22.386Z,-4.04
2023-03-05T03:14:24.378Z,-4.06
2023-03-05T03:19:26.494Z,-4.08
2023-03-05T03:24:30.254Z,-4.09
2023-03-05T03:29:32.287Z,-4.11
2023-03-05T03:34:34.281Z,-4.13
2023-03-05T03:39:36.463Z,-4.15
2023-03-05T03:44:38.509Z,-4.16
2023-03-05T03:49:40.581Z,-4.18
2023-03-05T03:54:42.578Z,-4.20
2023-03-05T03:59:46.308Z,-4.21
2023-03-05T04:04:48.643Z,-4.24
2023-03-05T04:09:50.953Z,-4.24
2023-03-05T04:14:53.283Z,-4.29
2023-03-05T04:19:55.403Z,-4.31
2023-03-05T04:24:57.628Z,-4.31
2023-03-05T04:29:59.666Z,-4.34
2023-03-05T04:35:01.695Z,-4.35
2023-03-05T04:40:04.654Z,-4.37
2023-03-05T04:45:08.122Z,-4.40
2023-03-05T04:50:11.363Z,-4.42
2023-03-05T04:55:15.365Z,-4.44
2023-03-05T05:00:18.285Z,-4.47
2023-03-05T05:05:23.669Z,-4.47
2023-03-05T05:10:27.229Z,-4.50
2023-03-05T05:15:29.232Z,-4.52
2023-03-05T05:20:31.361Z,-4.52
2023-03-05T05:25:33.459Z,-4.54
2023-03-05T05:30:35.467Z,-4.52
2023-03-05T05:35:40.306Z,-4.51
2023-03-05T05:40:42.716Z,-4.49
2023-03-05T05:45:45.669Z,-4.49
2023-03-05T05:50:47.716Z,-4.44
2023-03-05T05:55:50.068Z,-4.42
2023-03-05T06:00:52.305Z,-4.38
2023-03-05T06:06:01.895Z,-4.35
2023-03-05T06:11:06.437Z,-4.28
2023-03-05T06:16:10.260Z,-4.24
2023-03-05T06:21:15.484Z,-4.20
2023-03-05T06:26:21.341Z,-4.14
2023-03-05T06:31:26.062Z,-4.11
2023-03-05T06:36:28.652Z,-4.06
2023-03-05T06:41:32.072Z,-4.01
2023-03-05T06:46:37.452Z,-3.95
2023-03-05T06:51:40.853Z,-3.90
2023-03-05T06:56:44.003Z,-3.83
2023-03-05T07:01:46.244Z,-3.78
2023-03-05T07:06:48.309Z,-3.73
2023-03-05T07:11:50.422Z,-3.69
2023-03-05T07:16:52.458Z,-3.61
2023-03-05T07:21:54.424Z,-3.56
2023-03-05T07:26:57.792Z,-3.51
2023-03-05T07:31:59.741Z,-3.47
2023-03-05T07:37:01.751Z,-3.41
2023-03-05T07:42:03.951Z,-3.33
2023-03-05T07:47:16.193Z,-3.28
2023-03-05T07:52:18.833Z,-3.20
2023-03-05T07:57:20.877Z,-3.13
2023-03-05T08:02:23.452Z,-3.06
2023-03-05T08:07:25.509Z,-2.98
2023-03-05T08:12:27.497Z,-2.90
2023-03-05T08:17:31.228Z,-2.80
2023-03-05T08:22:34.994Z,-2.73
2023-03-05T08:27:42.766Z,-2.63
2023-03-05T08:32:44.948Z,-2.58
2023-03-05T08:38:06.332Z,-2.54
2023-03-05T08:43:08.574Z,-2.46
2023-03-05T08:48:10.749Z,-2.40
2023-03-05T08:53:14.791Z,-2.34
2023-03-05T08:58:17.737Z,-2.27
2023-03-05T09:03:19.965Z,-2.21
2023-03-05T09:08:22.529Z,-2.14
2023-03-05T09:13:24.685Z,-2.05
2023-03-05T09:18:29.065Z,-2.00
2023-03-05T09:23:32.216Z,-1.92
2023-03-05T09:28:42.636Z,-1.86
2023-03-05T09:33:45.150Z,-1.80
2023-03-05T09:38:47.468Z,-1.75
2023-03-05T09:44:09.345Z,-1.68
2023-03-05T09:49:48.921Z,-1.62
2023-03-05T09:54:57.500Z,-1.58
2023-03-05T10:00:08.196Z,-1.53
2023-03-05T10:05:43.877Z,-1.46
2023-03-05T10:10:50.789Z,-1.40
2023-03-05T10:15:55.753Z,-1.35
2023-03-05T10:21:31.003Z,-1.30
2023-03-05T10:26:55.295Z,-1.24
2023-03-05T10:32:34.087Z,-1.19
2023-03-05T10:38:02.004Z,-1.13
2023-03-05T10:43:31.700Z,-1.08
2023-03-05T10:48:48.926Z,-1.02
2023-03-05T10:54:12.202Z,-0.95
2023-03-05T10:59:14.525Z,-0.92
2023-03-05T11:04:39.059Z,-0.87
2023-03-05T11:09:42.616Z,-0.81
2023-03-05T11:14:50.318Z,-0.76
2023-03-05T11:19:53.073Z,-0.72
2023-03-05T11:25:22.036Z,-0.64
2023-03-05T11:30:33.479Z,-0.59
2023-03-05T11:35:39.847Z,-0.54
2023-03-05T11:40:43.541Z,-0.49
2023-03-05T11:45:50.901Z,-0.43
2023-03-05T11:50:58.416Z,-0.39
2023-03-05T11:56:18.107Z,-0.34
2023-03-05T12:01:25.162Z,-0.29
2023-03-05T12:06:44.895Z,-0.25
2023-03-05T12:11:51.602Z,-0.21
2023-03-05T12:17:08.499Z,-0.16
2023-03-05T12:22:21.546Z,-0.11
2023-03-05T12:27:35.907Z,-0.07
2023-03-05T12:32:38.171Z,-0.03
2023-03-05T12:37:50.952Z,0.01
2023-03-05T12:42:54.609Z,0.05
2023-03-05T12:47:58.325Z,0.10
2023-03-05T12:53:19.024Z,0.13
2023-03-05T12:58:30.215Z,0.18
2023-03-05T13:03:42.566Z,0.23
2023-03-05T13:08:44.938Z,0.26
2023-03-05T13:13:48.953Z,0.26
2023-03-05T13:18:53.551Z,0.30
2023-03-05T13:24:00.231Z,0.34
2023-03-05T13:29:28.876Z,0.36
2023-03-05T13:34:47.063Z,0.39
2023-03-05T13:40:11.537Z,0.42
2023-03-05T13:45:31.823Z,0.44
2023-03-05T13:50:41.292Z,0.49
2023-03-05T13:55:44.423Z,0.53
2023-03-05T14:00:47.575Z,0.56
2023-03-05T14:05:50.795Z,0.60
2023-03-05T14:10:59.300Z,0.64
2023-03-05T14:16:11.933Z,0.67
2023-03-05T14:21:15.098Z,0.73
2023-03-05T14:26:32.932Z,0.77
2023-03-05T14:32:03.858Z,0.80
2023-03-05T14:37:25.595Z,0.81
2023-03-05T14:42:32.202Z,0.84
2023-03-05T14:47:35.399Z,0.87
2023-03-05T14:52:38.721Z,0.89
2023-03-05T14:57:41.447Z,0.91
2023-03-05T15:02:44.594Z,0.93
2023-03-05T15:07:49.677Z,0.93
2023-03-05T15:12:54.381Z,0.94
2023-03-05T15:17:58.369Z,0.94
2023-03-05T15:23:01.312Z,0.95
2023-03-05T15:28:03.693Z,0.94
2023-03-05T15:33:12.171Z,0.92
2023-03-05T15:38:16.956Z,0.91
2023-03-05T15:43:23.896Z,0.88
2023-03-05T15:48:27.297Z,0.84
2023-03-05T15:53:30.347Z,0.77
2023-03-05T15:58:33.417Z,0.73
2023-03-05T16:03:36.770Z,0.69
2023-03-05T16:08:41.678Z,0.61
2023-03-05T16:13:45.563Z,0.54
2023-03-05T16:18:49.681Z,0.48
2023-03-05T16:23:52.651Z,0.41
2023-03-05T16:28:55.994Z,0.30
2023-03-05T16:33:58.845Z,0.24
2023-03-05T16:39:03.735Z,0.14
2023-03-05T16:44:07.294Z,0.03
2023-03-05T16:49:10.981Z,-0.07
2023-03-05T16:54:14.333Z,-0.18
2023-03-05T16:59:18.623Z,-0.28
2023-03-05T17:04:21.989Z,-0.38
2023-03-05T17:09:26.319Z,-0.48
2023-03-05T17:14:30.303Z,-0.56
2023-03-05T17:19:33.516Z,-0.63
2023-03-05T17:24:36.342Z,-0.72
2023-03-05T17:29:39.781Z,-0.77
2023-03-05T17:34:45.574Z,-0.82
2023-03-05T17:39:48.768Z,-0.90
2023-03-05T17:44:51.935Z,-0.91
2023-03-05T17:49:55.122Z,-0.95
2023-03-05T17:54:59.082Z,-0.99
2023-03-05T18:00:02.802Z,-1.04
2023-03-05T18:05:07.802Z,-1.05
2023-03-05T18:10:15.592Z,-1.09
2023-03-05T18:15:23.516Z,-1.12
2023-03-05T18:20:38.635Z,-1.15
2023-03-05T18:25:41.766Z,-1.18
2023-03-05T18:30:46.953Z,-1.21
2023-03-05T18:35:52.802Z,-1.26
2023-03-05T18:40:57.395Z,-1.31
2023-03-05T18:46:00.323Z,-1.35
2023-03-05T18:51:03.889Z,-1.41
2023-03-05T18:56:08.318Z,-1.45
2023-03-05T19:01:12.872Z,-1.49
2023-03-05T19:06:18.569Z,-1.53
2023-03-05T19:11:22.668Z,-1.55
2023-03-05T19:16:34.293Z,-1.58
2023-03-05T19:21:37.304Z,-1.60
2023-03-05T19:26:40.079Z,-1.62
2023-03-05T19:31:44.153Z,-1.63
2023-03-05T19:36:48.288Z,-1.66
2023-03-05T19:41:53.198Z,-1.69
2023-03-05T19:46:56.576Z,-1.71
2023-03-05T19:52:07.056Z,-1.75
2023-03-05T19:57:11.172Z,-1.79
2023-03-05T20:02:14.560Z,-1.82
2023-03-05T20:07:17.291Z,-1.87
2023-03-05T20:12:20.713Z,-1.89
2023-03-05T20:17:24.117Z,-1.94
2023-03-05T20:22:26.596Z,-2.00
2023-03-05T20:27:30.099Z,-2.06
2023-03-05T20:32:34.557Z,-2.11
2023-03-05T20:37:40.891Z,-2.17
2023-03-05T20:42:44.442Z,-2.22
2023-03-05T20:47:48.320Z,-2.28
2023-03-05T20:52:50.812Z,-2.33
2023-03-05T20:57:53.773Z,-2.40
2023-03-05T21:02:57.302Z,-2.45
2023-03-05T21:08:04.028Z,-2.51
2023-03-05T21:13:07.244Z,-2.56
2023-03-05T21:18:10.002Z,-2.61
2023-03-05T21:23:12.505Z,-2.66
2023-03-05T21:28:17.859Z,-2.71
2023-03-05T21:33:30.928Z,-2.77
2023-03-05T21:38:34.288Z,-2.83
2023-03-05T21:43:39.062Z,-2.89
2023-03-05T21:48:41.307Z,-2.94
2023-03-05T21:53:43.439Z,-2.99
2023-03-05T21:58:45.601Z,-3.05
2023-03-05T22:03:48.368Z,-3.10
2023-03-05T22:08:50.464Z,-3.16
2023-03-05T22:13:52.480Z,-3.21
2023-03-05T22:18:54.823Z,-3.25
2023-03-05T22:23:57.738Z,-3.32
2023-03-05T22:28:59.707Z,-3.37
2023-03-05T22:34:01.768Z,-3.42
2023-03-05T22:39:04.981Z,-3.47
2023-03-05T22:44:06.987Z,-3.52
2023-03-05T22:49:09.009Z,-3.55
2023-03-05T22:54:11.094Z,-3.62
2023-03-05T22:59:13.454Z,-3.67
2023-03-05T23:04:29.261Z,-3.71
2023-03-05T23:09:31.374Z,-3.76
2023-03-05T23:14:33.394Z,-3.80
2023-03-05T23:19:39.785Z,-3.85
2023-03-05T23:24:42.022Z,-3.88
2023-03-05T23:30:09.214Z,-3.93
2023-03-05T23:35:12.773Z,-3.98
2023-03-05T23:40:16.981Z,-4.02
2023-03-05T23:45:20.805Z,-4.06
2023-03-05T23:50:34.369Z,-4.10
2023-03-05T23:55:41.034Z,-4.17
